Time;durP1;ratioP1;P1;durP2;ratioP2;P2;SDS_P1;SDS_P2;PMS_P1;PMS_P2;Temp;Humidity;BMP_temperature;BMP_pressure;BME280_temperature;BME280_humidity;BME280_pressure;Samples;Min_cycle;Max_cycle;Signal;HPM_P1;HPM_P2
2023/07/05 00:03:26;;;;;;;;;;;19.80;38.90;;;18.81;39.34;100985.22;12252663;19;19930;-87
2023/07/05 00:07:27;;;;;;;;;;;19.70;39.00;;;18.73;39.21;100991.16;12258614;19;20333;-87
2023/07/05 00:11:29;;;;;;;;;;;19.60;39.00;;;18.80;39.40;100999.44;12256712;19;19935;-88
2023/07/05 00:15:30;;;;;;;;;;;19.50;39.10;;;18.69;39.50;100989.75;12252471;19;19915;-88
2023/07/05 00:19:32;;;;;;;;;;;19.50;39.20;;;18.52;39.22;100967.38;12251160;19;19911;-88
2023/07/05 00:23:35;;;;;;;;;;;19.40;39.10;;;18.52;39.47;100972.69;12250046;19;19949;-88
2023/07/05 00:27:37;;;;;;;;;;;19.30;39.10;;;18.56;39.66;100983.81;12251390;19;19907;-88
2023/07/05 00:31:39;;;;;;;;;;;19.30;39.20;;;18.41;39.35;100964.78;12252181;19;19978;-88
2023/07/05 00:35:48;;;;;;;;;;;19.20;39.60;;;18.39;39.69;100965.88;12252297;19;19919;-88
2023/07/05 00:39:50;;;;;;;;;;;19.20;39.30;;;18.39;39.65;100971.16;12250401;19;19918;-87
2023/07/05 00:43:51;;;;;;;;;;;19.10;39.30;;;18.23;39.71;100959.25;12243236;19;19929;-87
2023/07/05 00:47:53;;;;;;;;;;;19.00;39.40;;;18.30;39.66;100980.72;12248778;19;19923;-88
2023/07/05 00:52:01;;;;;;;;;;;19.00;39.40;;;18.15;39.82;100961.72;12247987;19;20337;-88
2023/07/05 00:56:10;;;;;;;;;;;18.90;39.60;;;18.12;39.93;100965.44;12250745;19;19986;-87
2023/07/05 01:00:15;;;;;;;;;;;18.90;39.50;;;18.04;39.75;100953.84;12250587;19;19915;-88
2023/07/05 01:04:17;;;;;;;;;;;18.90;39.60;;;18.16;39.79;100970.47;12246202;19;20329;-88
2023/07/05 01:08:19;;;;;;;;;;;18.90;39.70;;;18.06;39.97;100955.34;12248457;19;19929;-87
2023/07/05 01:12:35;;;;;;;;;;;18.90;39.90;;;18.04;40.04;100945.91;12245596;19;19915;-87
2023/07/05 01:16:44;;;;;;;;;;;18.80;39.80;;;17.96;40.27;100932.47;12248922;19;19911;-88
2023/07/05 01:21:19;;;;;;;;;;;18.70;39.80;;;17.86;40.13;100922.66;12249423;19;20269;-88
2023/07/05 01:25:51;;;;;;;;;;;18.70;39.80;;;17.95;40.18;100925.50;12247471;19;19919;-87
2023/07/05 01:30:08;;;;;;;;;;;18.70;39.80;;;17.87;40.00;100916.41;12251307;19;19954;-87
2023/07/05 01:34:30;;;;;;;;;;;18.60;39.70;;;17.76;40.22;100912.97;12246858;19;19988;-87
2023/07/05 01:38:32;;;;;;;;;;;18.50;39.70;;;17.76;40.21;100931.44;12247962;19;19911;-87
2023/07/05 01:42:33;;;;;;;;;;;18.60;39.80;;;17.64;40.25;100913.00;12244972;19;19978;-87
2023/07/05 01:46:45;;;;;;;;;;;18.50;39.90;;;17.68;40.40;100917.06;12244819;19;19935;-87
2023/07/05 01:50:54;;;;;;;;;;;18.50;40.00;;;17.72;40.53;100916.84;12258202;19;20278;-88
2023/07/05 01:55:04;;;;;;;;;;;18.50;40.10;;;17.75;40.65;100919.22;12254342;19;20011;-87
2023/07/05 01:59:08;;;;;;;;;;;18.50;40.10;;;17.64;40.51;100902.44;12257345;19;19923;-87
2023/07/05 02:03:12;;;;;;;;;;;18.50;40.10;;;17.60;40.44;100906.28;12257277;19;19970;-88
2023/07/05 02:07:14;;;;;;;;;;;18.50;40.30;;;17.64;40.78;100915.66;12259380;19;19925;-87
2023/07/05 02:11:16;;;;;;;;;;;18.40;40.10;;;17.54;40.53;100890.13;12259640;19;19987;-88
2023/07/05 02:15:19;;;;;;;;;;;18.50;40.40;;;17.63;40.65;100915.75;12257586;19;20268;-88
2023/07/05 02:19:21;;;;;;;;;;;18.40;40.20;;;17.56;40.72;100896.13;12256101;19;20460;-88
2023/07/05 02:23:23;;;;;;;;;;;18.40;40.30;;;17.44;40.80;100880.31;12254751;19;19919;-88
2023/07/05 02:27:26;;;;;;;;;;;18.30;40.30;;;17.30;40.84;100850.72;12259317;19;19918;-88
2023/07/05 02:31:29;;;;;;;;;;;18.30;40.20;;;17.42;40.84;100878.78;12255293;19;19919;-88
2023/07/05 02:35:35;;;;;;;;;;;18.30;40.40;;;17.14;40.93;100827.38;12256940;19;19943;-88
2023/07/05 02:39:36;;;;;;;;;;;18.20;40.30;;;17.22;40.82;100838.97;12254910;19;20374;-88
2023/07/05 02:43:38;;;;;;;;;;;18.20;40.30;;;17.13;41.05;100823.91;12253362;19;19934;-88
2023/07/05 02:47:40;;;;;;;;;;;18.20;40.30;;;17.32;40.98;100844.34;12255941;19;19919;-87
2023/07/05 02:51:43;;;;;;;;;;;18.20;40.40;;;17.25;41.11;100835.25;12255487;19;20348;-87
2023/07/05 02:55:45;;;;;;;;;;;18.20;40.40;;;17.24;41.05;100815.09;12255606;19;19993;-88
2023/07/05 02:59:46;;;;;;;;;;;18.20;40.40;;;17.18;40.89;100808.53;12256363;19;19919;-87
2023/07/05 03:03:48;;;;;;;;;;;18.10;40.40;;;17.21;40.86;100812.72;12252637;19;19950;-88
2023/07/05 03:07:50;;;;;;;;;;;18.10;40.40;;;17.07;41.15;100792.75;12254386;19;20268;-88
2023/07/05 03:11:51;;;;;;;;;;;18.10;40.30;;;17.05;41.18;100784.09;12253838;19;19911;-87
2023/07/05 03:15:53;;;;;;;;;;;18.00;40.30;;;16.90;40.93;100764.25;12252502;19;19948;-88
2023/07/05 03:19:57;;;;;;;;;;;18.00;40.40;;;17.02;41.24;100797.56;12255121;19;19935;-88
2023/07/05 03:23:59;;;;;;;;;;;18.00;40.40;;;16.92;41.17;100772.88;12250793;19;19926;-88
2023/07/05 03:28:02;;;;;;;;;;;17.90;40.50;;;16.86;41.39;100765.47;12256022;19;19915;-88
2023/07/05 03:32:07;;;;;;;;;;;17.90;40.50;;;17.03;41.28;100801.84;12251946;19;19936;-87
2023/07/05 03:36:15;;;;;;;;;;;17.90;40.70;;;16.97;41.35;100783.88;12254059;19;19922;-88
2023/07/05 03:40:16;;;;;;;;;;;17.90;40.80;;;16.95;41.61;100781.38;12253583;19;20252;-87
2023/07/05 03:44:21;;;;;;;;;;;17.90;40.80;;;16.99;41.47;100784.63;12250796;19;19926;-87
2023/07/05 03:48:23;;;;;;;;;;;17.90;40.90;;;16.99;41.46;100781.97;12253605;19;19926;-87
2023/07/05 03:52:25;;;;;;;;;;;17.90;40.90;;;16.76;41.54;100737.16;12253131;19;19926;-86
2023/07/05 03:56:29;;;;;;;;;;;17.90;41.00;;;17.03;41.56;100770.19;12255095;19;19919;-86
2023/07/05 04:00:31;;;;;;;;;;;17.90;40.90;;;16.81;41.59;100732.38;12254564;19;19914;-86
2023/07/05 04:04:33;;;;;;;;;;;17.90;41.10;;;17.06;41.64;100763.84;12247865;19;19926;-86
2023/07/05 04:08:35;;;;;;;;;;;18.00;41.20;;;17.07;41.94;100757.59;12252510;19;19919;-86
2023/07/05 04:12:37;;;;;;;;;;;18.10;41.20;;;17.10;41.80;100744.16;12248413;19;19918;-86
2023/07/05 04:16:38;;;;;;;;;;;18.10;41.30;;;17.28;41.78;100760.25;12250387;19;19915;-87
2023/07/05 04:20:40;;;;;;;;;;;18.20;41.40;;;17.19;41.79;100728.38;12255098;19;19919;-85
2023/07/05 04:24:41;;;;;;;;;;;18.20;41.40;;;17.31;41.85;100747.66;12248256;19;19926;-86
2023/07/05 04:28:43;;;;;;;;;;;18.30;41.40;;;17.33;41.85;100739.59;12249229;19;19938;-86
2023/07/05 04:32:45;;;;;;;;;;;18.40;41.40;;;17.50;41.91;100756.66;12243534;19;19923;-85
2023/07/05 04:36:46;;;;;;;;;;;18.40;41.70;;;17.49;42.02;100734.69;12250021;19;19923;-86
2023/07/05 04:40:48;;;;;;;;;;;18.50;41.50;;;17.63;41.95;100736.19;12248780;19;20321;-85
2023/07/05 04:44:50;;;;;;;;;;;18.60;41.50;;;17.57;42.28;100723.50;12246085;19;20278;-86
2023/07/05 04:48:52;;;;;;;;;;;18.60;41.30;;;17.67;42.05;100727.88;12247913;19;19927;-85
2023/07/05 04:52:55;;;;;;;;;;;18.70;41.60;;;17.75;42.17;100710.53;12250191;19;20281;-85
2023/07/05 04:56:56;;;;;;;;;;;18.80;41.60;;;17.85;42.15;100709.66;12249389;19;19907;-85
2023/07/05 05:01:03;;;;;;;;;;;18.80;41.70;;;17.97;42.47;100701.63;12249428;19;19934;-85
2023/07/05 05:05:06;;;;;;;;;;;18.90;41.60;;;18.14;42.22;100712.38;12247298;19;19919;-85
2023/07/05 05:09:08;;;;;;;;;;;19.10;42.00;;;18.15;42.46;100684.16;12249362;19;19978;-86
2023/07/05 05:13:10;;;;;;;;;;;19.20;41.90;;;18.25;42.23;100669.16;12248395;19;20628;-85
2023/07/05 05:17:12;;;;;;;;;;;19.40;42.10;;;18.47;42.24;100675.19;12247010;19;19978;-85
2023/07/05 05:21:13;;;;;;;;;;;19.50;42.70;;;18.56;42.33;100669.09;12247941;19;19950;-86
2023/07/05 05:25:15;;;;;;;;;;;19.70;42.00;;;18.75;42.45;100678.88;12257397;19;19938;-85
2023/07/05 05:29:16;;;;;;;;;;;19.80;42.30;;;18.83;42.45;100684.31;12260934;19;19923;-85
2023/07/05 05:33:18;;;;;;;;;;;19.90;42.00;;;18.87;42.60;100656.56;12258891;19;19922;-86
2023/07/05 05:37:20;;;;;;;;;;;20.00;41.90;;;18.94;42.47;100648.91;12260928;19;19948;-86
2023/07/05 05:41:22;;;;;;;;;;;20.10;42.10;;;19.12;42.46;100659.59;12262644;19;19927;-85
2023/07/05 05:45:23;;;;;;;;;;;20.20;41.80;;;19.28;42.75;100659.03;12260182;19;19915;-85
2023/07/05 05:49:25;;;;;;;;;;;20.30;41.80;;;19.35;42.36;100637.13;12264061;19;19910;-82
2023/07/05 05:53:26;;;;;;;;;;;20.50;42.00;;;19.59;42.41;100635.81;12254206;19;20273;-82
2023/07/05 05:57:28;;;;;;;;;;;20.60;42.20;;;19.67;42.55;100617.41;12258137;19;19938;-80
2023/07/05 06:01:29;;;;;;;;;;;20.80;42.40;;;19.97;42.79;100628.69;12256750;19;19939;-81
2023/07/05 06:05:34;;;;;;;;;;;21.00;42.90;;;20.09;42.67;100614.22;12254008;19;20002;-82
2023/07/05 06:09:38;;;;;;;;;;;21.10;42.10;;;20.21;42.66;100599.78;12254643;19;19919;-83
2023/07/05 06:13:39;;;;;;;;;;;21.40;42.60;;;20.37;42.57;100585.84;12252203;19;19919;-82
2023/07/05 06:17:41;;;;;;;;;;;21.50;42.10;;;20.47;42.75;100586.63;12250379;19;19932;-82
2023/07/05 06:21:43;;;;;;;;;;;21.60;41.80;;;20.64;42.40;100592.09;12252294;19;19914;-82
2023/07/05 06:25:49;;;;;;;;;;;21.70;41.80;;;20.44;42.91;100538.31;12251911;19;19927;-81
2023/07/05 06:29:50;;;;;;;;;;;21.80;41.60;;;20.80;42.64;100567.50;12252675;19;20246;-82
2023/07/05 06:33:52;;;;;;;;;;;22.00;41.80;;;20.94;42.56;100573.06;12248010;19;19987;-82
2023/07/05 06:37:53;;;;;;;;;;;22.00;41.70;;;21.03;42.67;100562.50;12251927;19;19930;-82
2023/07/05 06:41:55;;;;;;;;;;;22.10;41.80;;;21.16;42.44;100561.09;12253223;19;19919;-83
2023/07/05 06:45:57;;;;;;;;;;;22.20;41.70;;;21.07;42.73;100524.03;12252072;19;19930;-84
2023/07/05 06:49:58;;;;;;;;;;;22.30;41.70;;;21.38;42.88;100542.97;12252675;19;19929;-83
2023/07/05 06:54:00;;;;;;;;;;;22.40;41.50;;;21.32;42.38;100517.00;12248141;19;19938;-84
2023/07/05 06:58:02;;;;;;;;;;;22.50;41.40;;;21.49;42.26;100515.28;12252468;19;20326;-83
2023/07/05 07:02:04;;;;;;;;;;;22.60;41.90;;;21.68;42.70;100516.81;12250032;19;19921;-84
2023/07/05 07:06:06;;;;;;;;;;;22.70;41.60;;;21.62;42.56;100489.91;12251131;19;20275;-84
2023/07/05 07:10:08;;;;;;;;;;;22.80;41.50;;;21.92;42.37;100514.22;12253839;19;19950;-83
2023/07/05 07:14:09;;;;;;;;;;;22.90;41.80;;;22.02;42.59;100509.59;12248161;19;20541;-84
2023/07/05 07:18:11;;;;;;;;;;;23.10;41.50;;;22.16;42.68;100528.53;12251008;19;20390;-83
2023/07/05 07:22:15;;;;;;;;;;;23.20;41.50;;;22.25;42.45;100540.88;12249544;19;19930;-83
2023/07/05 07:26:19;;;;;;;;;;;23.30;41.30;;;22.27;42.36;100528.25;12249725;19;19982;-84
2023/07/05 07:30:21;;;;;;;;;;;23.40;41.30;;;22.34;42.67;100515.97;12252345;19;19927;-83
2023/07/05 07:34:23;;;;;;;;;;;23.50;41.10;;;22.62;42.63;100526.25;12248483;19;19915;-84
2023/07/05 07:38:24;;;;;;;;;;;23.60;41.00;;;22.71;42.44;100522.56;12248587;19;19966;-83
2023/07/05 07:42:26;;;;;;;;;;;23.80;40.90;;;22.88;42.34;100513.56;12246611;19;19939;-83
2023/07/05 07:46:30;;;;;;;;;;;23.90;40.80;;;22.96;42.22;100521.56;12246418;19;19919;-83
2023/07/05 07:50:31;;;;;;;;;;;24.00;40.80;;;23.11;42.52;100510.19;12247005;19;19997;-83
2023/07/05 07:54:33;;;;;;;;;;;24.10;40.60;;;23.29;42.46;100502.78;12246531;19;19915;-83
2023/07/05 07:58:35;;;;;;;;;;;24.30;40.70;;;23.32;42.31;100478.47;12249495;19;19931;-83
2023/07/05 08:02:37;;;;;;;;;;;24.40;40.90;;;23.56;42.01;100498.00;12248310;19;19943;-84
2023/07/05 08:06:50;;;;;;;;;;;24.60;40.70;;;23.63;41.90;100509.66;12248197;19;19919;-84
2023/07/05 08:10:52;;;;;;;;;;;24.70;40.50;;;23.77;41.91;100522.25;12248805;19;19974;-84
2023/07/05 08:14:53;;;;;;;;;;;24.90;40.60;;;23.75;41.95;100523.44;12244231;19;19922;-84
2023/07/05 08:18:57;;;;;;;;;;;24.90;40.60;;;23.87;42.15;100548.69;12248456;19;19935;-84
2023/07/05 08:22:58;;;;;;;;;;;25.00;40.60;;;24.01;42.06;100555.94;12247818;19;20704;-85
2023/07/05 08:27:00;;;;;;;;;;;25.00;40.50;;;24.00;41.78;100540.09;12246201;19;20321;-85
2023/07/05 08:31:03;;;;;;;;;;;25.10;40.20;;;24.12;41.91;100553.88;12248871;19;19922;-84
2023/07/05 08:35:05;;;;;;;;;;;25.20;40.30;;;24.21;41.76;100556.31;12240640;19;19936;-83
2023/07/05 08:39:07;;;;;;;;;;;25.20;40.00;;;24.31;41.69;100571.25;12246888;19;19918;-83
2023/07/05 08:43:54;;;;;;;;;;;25.30;40.30;;;24.40;41.69;100563.00;12243147;19;20215;-83
2023/07/05 08:48:00;;;;;;;;;;;25.30;40.20;;;24.38;42.02;100540.16;12247747;19;19914;-84
2023/07/05 08:52:03;;;;;;;;;;;25.40;40.30;;;24.50;41.74;100549.44;12243234;19;20300;-83
2023/07/05 08:56:21;;;;;;;;;;;25.50;40.50;;;24.63;42.07;100538.97;12244864;19;19919;-83
2023/07/05 09:00:32;;;;;;;;;;;25.60;40.40;;;24.61;41.76;100530.31;12245786;19;19914;-84
2023/07/05 09:04:33;;;;;;;;;;;25.60;40.30;;;24.61;41.54;100514.28;12240029;19;20391;-83
2023/07/05 09:08:51;;;;;;;;;;;25.70;40.30;;;24.74;41.71;100551.06;12244776;19;19920;-83
2023/07/05 09:13:07;;;;;;;;;;;25.70;40.10;;;24.75;41.96;100536.69;12242556;19;20348;-83
2023/07/05 09:17:12;;;;;;;;;;;25.70;40.20;;;24.76;41.53;100535.66;12244085;19;20330;-83
2023/07/05 09:21:37;;;;;;;;;;;25.80;40.30;;;24.93;41.72;100544.38;12241505;19;19938;-83
2023/07/05 09:25:41;;;;;;;;;;;25.90;40.20;;;25.00;41.72;100547.94;12242713;19;19946;-84
2023/07/05 09:30:06;;;;;;;;;;;26.00;40.10;;;25.08;41.64;100547.84;12242693;19;19927;-83
2023/07/05 09:34:11;;;;;;;;;;;26.00;40.20;;;25.16;41.39;100550.47;12241046;19;20302;-83
2023/07/05 09:38:41;;;;;;;;;;;26.10;40.20;;;25.24;41.35;100562.91;12242624;19;19925;-84
2023/07/05 09:42:45;;;;;;;;;;;26.20;40.30;;;25.28;41.24;100558.06;12240755;19;20252;-83
2023/07/05 09:46:47;;;;;;;;;;;26.20;40.20;;;25.11;41.66;100525.28;12244097;19;19925;-83
2023/07/05 09:50:51;;;;;;;;;;;26.20;40.60;;;25.22;41.26;100545.41;12242971;19;19929;-83
2023/07/05 09:54:58;;;;;;;;;;;26.20;40.60;;;25.20;41.09;100556.28;12238759;19;19919;-82
2023/07/05 09:59:15;;;;;;;;;;;26.20;40.60;;;25.19;41.47;100551.13;12242273;19;19918;-83
2023/07/05 10:03:19;;;;;;;;;;;26.10;40.50;;;25.23;41.72;100555.09;12241273;19;19974;-83
2023/07/05 10:07:32;;;;;;;;;;;26.10;40.50;;;25.24;41.43;100552.22;12241535;19;19907;-84
2023/07/05 10:11:34;;;;;;;;;;;26.10;40.70;;;25.23;41.27;100539.06;12252360;19;19928;-85
2023/07/05 10:15:40;;;;;;;;;;;26.10;40.70;;;25.31;41.48;100552.31;12252911;19;20592;-83
2023/07/05 10:19:53;;;;;;;;;;;26.20;40.70;;;25.36;41.48;100550.75;12252929;19;19956;-82
2023/07/05 10:23:58;;;;;;;;;;;26.20;40.90;;;25.37;41.60;100541.72;12250410;19;19927;-83
2023/07/05 10:28:04;;;;;;;;;;;26.20;40.80;;;25.41;41.70;100539.50;12254671;19;19927;-83
2023/07/05 10:32:16;;;;;;;;;;;26.30;41.30;;;25.50;41.51;100529.53;12250577;19;19934;-83
2023/07/05 10:36:19;;;;;;;;;;;26.30;40.90;;;25.51;41.70;100532.00;12252267;19;19966;-83
2023/07/05 10:40:22;;;;;;;;;;;26.40;40.80;;;25.57;41.44;100525.06;12252872;19;19922;-83
2023/07/05 10:44:34;;;;;;;;;;;26.40;40.50;;;25.59;41.08;100533.75;12249018;19;19929;-84
2023/07/05 10:48:42;;;;;;;;;;;26.50;40.70;;;25.64;41.33;100519.81;12251323;19;19994;-84
2023/07/05 10:52:50;;;;;;;;;;;26.50;40.70;;;25.60;41.71;100488.09;12249924;19;19931;-83
2023/07/05 10:56:52;;;;;;;;;;;26.60;40.90;;;25.77;41.49;100479.84;12251971;19;20625;-83
2023/07/05 11:01:04;;;;;;;;;;;26.70;41.00;;;25.99;41.65;100486.88;12251623;19;19919;-83
2023/07/05 11:05:49;;;;;;;;;;;26.90;40.90;;;26.34;41.35;100492.31;12251187;19;19927;-84
2023/07/05 11:09:51;;;;;;;;;;;27.10;41.00;;;26.47;41.45;100489.75;12242921;19;19930;-84
2023/07/05 11:13:53;;;;;;;;;;;27.30;40.90;;;26.63;41.23;100498.56;12245874;19;20340;-83
2023/07/05 11:17:55;;;;;;;;;;;27.40;40.70;;;26.70;41.18;100499.41;12250576;19;20428;-84
2023/07/05 11:21:58;;;;;;;;;;;27.60;40.50;;;26.82;41.37;100524.66;12244961;19;19922;-83
2023/07/05 11:26:01;;;;;;;;;;;27.70;40.20;;;26.83;41.16;100522.78;12252248;19;19942;-83
2023/07/05 11:30:05;;;;;;;;;;;27.70;40.20;;;26.89;41.32;100540.75;12249618;19;19978;-83
2023/07/05 11:34:22;;;;;;;;;;;27.80;40.40;;;26.94;41.07;100532.97;12247532;19;19930;-83
2023/07/05 11:38:36;;;;;;;;;;;27.80;40.40;;;27.03;41.08;100514.88;12248577;19;19914;-82
2023/07/05 11:42:37;;;;;;;;;;;27.90;39.70;;;27.08;41.10;100517.78;12248014;19;19990;-83
2023/07/05 11:46:46;;;;;;;;;;;27.90;40.20;;;27.14;41.12;100508.97;12249657;19;20334;-83
2023/07/05 11:50:47;;;;;;;;;;;28.00;40.40;;;27.26;41.11;100510.06;12248529;19;19941;-83
2023/07/05 11:54:52;;;;;;;;;;;28.10;40.30;;;27.38;41.07;100504.13;12245927;19;19937;-82
2023/07/05 11:58:55;;;;;;;;;;;28.20;40.20;;;27.40;40.91;100500.22;12249134;19;19914;-83
2023/07/05 12:03:24;;;;;;;;;;;28.30;39.60;;;27.23;40.80;100467.56;12248245;19;19956;-83
2023/07/05 12:07:26;;;;;;;;;;;28.30;39.00;;;27.42;40.49;100498.16;12247746;19;19966;-84
2023/07/05 12:11:55;;;;;;;;;;;28.30;40.10;;;27.53;40.99;100492.22;12246255;19;19923;-84
2023/07/05 12:15:58;;;;;;;;;;;28.30;39.90;;;27.56;40.91;100481.09;12248981;19;19946;-83
2023/07/05 12:20:00;;;;;;;;;;;28.40;39.80;;;27.65;40.79;100487.09;12250877;19;19986;-84
2023/07/05 12:24:07;;;;;;;;;;;28.40;40.10;;;27.64;40.72;100482.75;12245106;19;19923;-84
2023/07/05 12:28:36;;;;;;;;;;;28.50;40.00;;;27.70;40.76;100475.75;12252589;19;19915;-85
2023/07/05 12:32:38;;;;;;;;;;;28.60;40.10;;;27.87;40.54;100498.53;12245864;19;19923;-83
2023/07/05 12:36:43;;;;;;;;;;;28.70;39.30;;;27.84;40.60;100490.91;12249690;19;19947;-84
2023/07/05 12:40:54;;;;;;;;;;;28.70;39.20;;;27.88;40.48;100505.56;12250385;19;19930;-83
2023/07/05 12:45:08;;;;;;;;;;;28.70;38.70;;;27.82;40.57;100501.00;12245157;19;20272;-83
2023/07/05 12:49:11;;;;;;;;;;;28.70;39.50;;;27.93;40.45;100513.81;12247644;19;20329;-83
2023/07/05 12:53:16;;;;;;;;;;;28.70;39.30;;;27.94;40.62;100498.53;12247689;19;19971;-84
2023/07/05 12:57:26;;;;;;;;;;;28.70;39.40;;;27.88;40.40;100467.16;12247109;19;19925;-83
2023/07/05 13:01:40;;;;;;;;;;;28.80;39.30;;;27.94;39.92;100477.06;12243560;19;19925;-87
2023/07/05 13:05:42;;;;;;;;;;;28.80;39.40;;;28.00;40.27;100485.16;12244896;19;19914;-86
2023/07/05 13:09:44;;;;;;;;;;;28.80;39.30;;;27.91;40.60;100453.31;12246135;19;19911;-85
2023/07/05 13:13:55;;;;;;;;;;;28.80;39.50;;;27.97;40.34;100463.22;12241338;19;19921;-87
2023/07/05 13:18:32;;;;;;;;;;;28.80;39.60;;;28.06;40.28;100474.59;12245276;19;19922;-86
2023/07/05 13:22:37;;;;;;;;;;;28.80;39.70;;;27.96;40.21;100461.59;12247346;19;20333;-85
2023/07/05 13:26:39;;;;;;;;;;;28.80;39.70;;;27.98;40.17;100446.09;12244986;19;19911;-86
2023/07/05 13:30:43;;;;;;;;;;;28.90;39.80;;;28.17;40.30;100461.38;12244436;19;19922;-85
2023/07/05 13:34:44;;;;;;;;;;;29.00;40.00;;;28.28;39.97;100456.44;12243008;19;19915;-87
2023/07/05 13:38:46;;;;;;;;;;;29.00;39.60;;;28.32;40.32;100457.66;12245592;19;20323;-86
2023/07/05 13:42:48;;;;;;;;;;;29.10;39.20;;;28.30;40.16;100440.91;12242741;19;19946;-86
2023/07/05 13:46:50;;;;;;;;;;;29.00;39.40;;;28.36;40.17;100442.78;12253486;19;20361;-86
2023/07/05 13:50:51;;;;;;;;;;;29.10;39.50;;;28.34;40.29;100445.66;12251121;19;19919;-87
2023/07/05 13:54:53;;;;;;;;;;;29.10;39.50;;;28.40;39.62;100439.47;12249456;19;19947;-86
2023/07/05 13:58:54;;;;;;;;;;;29.20;39.50;;;28.47;40.13;100461.00;12254418;19;19926;-87
2023/07/05 14:02:57;;;;;;;;;;;29.30;39.90;;;28.41;40.29;100476.06;12250813;19;19983;-86
2023/07/05 14:06:58;;;;;;;;;;;29.20;39.10;;;28.12;39.76;100455.81;12257013;19;19915;-87
2023/07/05 14:10:59;;;;;;;;;;;29.20;39.10;;;28.22;39.73;100471.53;12261929;19;19958;-86
2023/07/05 14:15:01;;;;;;;;;;;29.10;38.80;;;28.18;39.88;100481.00;12254291;19;20252;-86
2023/07/05 14:19:03;;;;;;;;;;;29.10;39.00;;;27.83;40.28;100440.09;12263181;19;20029;-86
2023/07/05 14:23:10;;;;;;;;;;;29.00;39.00;;;28.09;40.11;100493.81;12253454;19;20007;-86
2023/07/05 14:27:18;;;;;;;;;;;28.90;38.90;;;28.03;39.82;100494.66;12256596;19;19931;-86
2023/07/05 14:31:19;;;;;;;;;;;28.90;39.10;;;28.02;40.03;100492.97;12256676;19;20256;-86
2023/07/05 14:35:22;;;;;;;;;;;28.80;38.90;;;28.02;39.99;100506.41;12255339;19;19927;-87
2023/07/05 14:39:23;;;;;;;;;;;28.80;38.90;;;27.99;40.11;100498.75;12253810;19;19936;-86
2023/07/05 14:43:24;;;;;;;;;;;28.80;38.60;;;28.09;40.02;100522.53;12252988;19;19911;-86
2023/07/05 14:47:26;;;;;;;;;;;28.80;39.00;;;28.06;40.05;100504.97;12256608;19;19922;-85
2023/07/05 14:51:27;;;;;;;;;;;28.80;39.10;;;28.21;39.75;100502.06;12260524;19;19923;-86
2023/07/05 14:55:30;;;;;;;;;;;28.90;39.00;;;28.26;39.95;100509.53;12265624;19;19922;-87
2023/07/05 14:59:31;;;;;;;;;;;29.00;38.90;;;28.16;39.71;100470.47;12267061;19;19921;-88
2023/07/05 15:03:36;;;;;;;;;;;29.10;38.10;;;28.51;39.47;100520.50;12255307;19;19927;-87
2023/07/05 15:07:38;;;;;;;;;;;29.20;38.20;;;28.58;39.24;100532.91;12266366;19;20498;-87
2023/07/05 15:11:41;;;;;;;;;;;29.30;37.10;;;28.56;39.39;100529.59;12265065;19;20332;-86
2023/07/05 15:15:43;;;;;;;;;;;29.30;36.10;;;28.67;39.33;100555.81;12255807;19;19923;-88
2023/07/05 15:19:44;;;;;;;;;;;29.40;36.50;;;28.66;39.24;100559.56;12263442;19;19930;-88
2023/07/05 15:23:53;;;;;;;;;;;29.50;36.70;;;28.65;39.00;100557.91;12263554;19;20349;-87
2023/07/05 15:27:54;;;;;;;;;;;29.50;36.80;;;28.57;38.66;100549.22;12265850;19;19927;-88
2023/07/05 15:31:56;;;;;;;;;;;29.50;37.60;;;28.55;38.97;100562.06;12266684;19;19919;-87
2023/07/05 15:35:57;;;;;;;;;;;29.50;37.20;;;28.43;38.89;100553.75;12270493;19;19923;-87
2023/07/05 15:39:59;;;;;;;;;;;29.40;36.90;;;28.38;38.99;100566.94;12262962;19;19914;-86
2023/07/05 15:44:00;;;;;;;;;;;29.30;37.00;;;28.47;38.73;100592.63;12258153;19;19931;-87
2023/07/05 15:48:02;;;;;;;;;;;29.30;37.50;;;28.41;38.56;100582.69;12266410;19;20019;-88
2023/07/05 15:52:04;;;;;;;;;;;29.20;36.70;;;28.40;38.61;100591.75;12261323;19;19919;-87
2023/07/05 15:56:06;;;;;;;;;;;29.20;36.40;;;28.22;38.09;100570.88;12264021;19;19923;-86
2023/07/05 16:00:16;;;;;;;;;;;29.10;36.90;;;28.27;38.03;100586.38;12258241;19;19947;-86
2023/07/05 16:04:17;;;;;;;;;;;29.10;36.80;;;28.02;38.14;100587.75;12260013;19;19930;-87
2023/07/05 16:08:19;;;;;;;;;;;29.00;36.60;;;28.15;38.11;100639.84;12261047;19;20307;-87
2023/07/05 16:12:20;;;;;;;;;;;28.90;36.60;;;27.91;38.21;100609.00;12257765;19;19919;-87
2023/07/05 16:16:22;;;;;;;;;;;28.80;36.40;;;28.02;38.11;100646.00;12259071;19;19929;-87
2023/07/05 16:20:23;;;;;;;;;;;28.80;36.60;;;27.99;37.93;100654.47;12261649;19;19927;-87
2023/07/05 16:24:25;;;;;;;;;;;28.70;35.70;;;27.93;38.37;100644.53;12256471;19;19929;-86
2023/07/05 16:28:26;;;;;;;;;;;28.60;36.20;;;27.69;38.21;100633.25;12262899;19;19915;-88
2023/07/05 16:32:28;;;;;;;;;;;28.60;36.70;;;27.48;37.89;100610.03;12252649;19;20373;-86
2023/07/05 16:36:30;;;;;;;;;;;28.60;36.60;;;27.77;37.94;100673.34;12257555;19;19923;-87
2023/07/05 16:40:37;;;;;;;;;;;28.50;36.40;;;27.64;37.78;100686.69;12257052;19;20341;-87
2023/07/05 16:44:39;;;;;;;;;;;28.40;35.70;;;27.49;37.90;100676.09;12258317;19;19919;-87
2023/07/05 16:48:40;;;;;;;;;;;28.30;36.00;;;27.22;37.72;100656.31;12256640;19;19932;-87
2023/07/05 16:52:41;;;;;;;;;;;28.20;36.00;;;27.33;37.77;100700.53;12255787;19;20563;-87
2023/07/05 16:56:43;;;;;;;;;;;28.10;36.10;;;27.33;37.60;100716.63;12255950;19;19930;-87
2023/07/05 17:00:44;;;;;;;;;;;28.00;36.10;;;27.22;37.65;100731.38;12255427;19;20257;-86
2023/07/05 17:04:46;;;;;;;;;;;28.00;35.80;;;27.08;37.47;100732.25;12247927;19;19918;-88
2023/07/05 17:08:48;;;;;;;;;;;27.90;36.30;;;26.87;37.81;100709.81;12243051;19;20351;-86
2023/07/05 17:12:49;;;;;;;;;;;27.80;35.60;;;26.86;37.65;100729.56;12251407;19;19927;-87
2023/07/05 17:16:51;;;;;;;;;;;27.70;36.00;;;26.91;37.18;100747.78;12248676;19;19930;-86
2023/07/05 17:21:00;;;;;;;;;;;27.60;35.90;;;26.85;37.20;100760.09;12249742;19;19922;-86
2023/07/05 17:25:02;;;;;;;;;;;27.50;35.70;;;26.76;37.36;100771.97;12252443;19;19915;-86
2023/07/05 17:29:03;;;;;;;;;;;27.40;35.80;;;26.67;37.03;100767.72;12251539;19;19922;-86
2023/07/05 17:33:07;;;;;;;;;;;27.30;35.40;;;26.59;37.16;100778.53;12246377;19;19923;-86
2023/07/05 17:37:09;;;;;;;;;;;27.20;35.70;;;26.40;37.26;100755.84;12247007;19;20257;-85
2023/07/05 17:41:11;;;;;;;;;;;27.20;35.90;;;26.47;36.97;100788.91;12248483;19;19919;-86
2023/07/05 17:45:12;;;;;;;;;;;27.10;35.50;;;26.35;36.98;100791.19;12248780;19;19918;-87
2023/07/05 17:49:13;;;;;;;;;;;27.10;35.90;;;26.30;37.05;100793.59;12251732;19;19948;-87
2023/07/05 17:53:15;;;;;;;;;;;27.00;34.70;;;26.21;36.90;100800.91;12247836;19;19926;-86
2023/07/05 17:57:17;;;;;;;;;;;26.90;35.40;;;26.13;36.88;100808.22;12250912;19;19940;-85
2023/07/05 18:01:21;;;;;;;;;;;26.80;35.50;;;26.07;37.17;100806.28;12248519;19;19915;-87
2023/07/05 18:05:22;;;;;;;;;;;26.80;35.60;;;26.00;36.71;100812.34;12249207;19;19919;-87
2023/07/05 18:09:24;;;;;;;;;;;26.70;35.50;;;25.87;36.70;100800.63;12251699;19;19936;-86
2023/07/05 18:13:27;;;;;;;;;;;26.60;35.70;;;25.90;36.73;100819.00;12256893;19;19939;-86
2023/07/05 18:17:30;;;;;;;;;;;26.60;35.70;;;25.89;36.77;100812.81;12262117;19;19955;-88
2023/07/05 18:21:38;;;;;;;;;;;26.50;35.90;;;25.89;37.04;100828.84;12257504;19;19915;-88